Terminal Aerodrome Forecast
Issued by NWS

Home | Current Version | Previous Version | Text Only | Print | Product List | Glossary On
Versions: 1 2 3 4 5 6 7 8 9 10 11 12 13 14
875
FTAK31 PAJN 151749 RRA
TAFAKT
TAF
PAKT 151749Z 1518/1618 16008KT P6SM VCSH SCT020 BKN035 OVC080
      TEMPO 1518/1521 -SHRA BKN025 OVC035
     FM160600 14008KT P6SM -RA BKN035 OVC050
     FM160900 15013G23KT 6SM -RA BR BKN030 OVC050
     FM161500 14018G28KT 4SM BR BKN015 OVC025
      AMD LTD TO CLD VIS AND WIND 1606/1615=

USA.gov is the U.S. government's official web portal to all federal, state and local government web resources and services.